»·PEaware :: N64TZ KBOI-KBKE

N64TZ :: KBOI-KBKE

FLIGHT INFORMATION

Flight Status: Arrived
Operator: Privately registered:
United States
More flights under this callsign
Pilot: David H. (11212)
Aircraft: PIPER PA-28 CHEROKEE ARCHER
(P28A)
More flights by this aircraft type
Origin: KBOI Boise Air Terminal/Gowen
United States
Destination: KBKE Baker City Mun
United States
More flights between these airports :: More routes between these airports
Route: +BOI3 BKE
File this flight plan on PilotEdge
Remarks:
Altitude:
(Current/Filed)
9,000ft
Speed:
(Current/Filed)
115kts
Departed: 01-Jul-18 04:15 PM
Arrived: 01-Jul-18 05:37 PM
Distance/Time
Traveled:
102nm/1:22
Distance/Time
To Go:
Arrived

Flight Plot

Page will automatically refresh every two minutes.

Flight plan parsing failed; only flown route is shown


Map Options




Map Legend


Flown Route
Filed Route
Departure Airport
Arrival Airport
Navaid (VOR, NDB)
Fix

Horizontal Profiles

Position Reports

Time Latitude Longitude Heading Altitude Ground
Speed
01-Jul-18 16:03 43.562158 -116.205914 270 2874ft 0kts
01-Jul-18 16:04 43.562159 -116.205914 270 2874ft 0kts
01-Jul-18 16:05 43.562159 -116.205914 270 2874ft 0kts
01-Jul-18 16:06 43.562159 -116.205914 270 2874ft 0kts
01-Jul-18 16:07 43.562158 -116.205914 270 2874ft 0kts
01-Jul-18 16:08 43.562159 -116.205914 270 2874ft 0kts
01-Jul-18 16:09 43.562159 -116.205914 270 2874ft 0kts
01-Jul-18 16:10 43.562158 -116.205914 270 2874ft 0kts
01-Jul-18 16:11 43.562094 -116.205976 173 2874ft 0kts
01-Jul-18 16:12 43.560704 -116.205282 112 2874ft 8kts
01-Jul-18 16:13 43.559686 -116.202390 129 2874ft 7kts
01-Jul-18 16:14 43.559451 -116.202089 159 2874ft 0kts
01-Jul-18 16:15 43.561562 -116.210955 301 2882ft 77kts
01-Jul-18 16:16 43.568693 -116.232909 298 3334ft 75kts
01-Jul-18 16:17 43.575331 -116.258597 297 3866ft 72kts
01-Jul-18 16:18 43.581758 -116.283568 303 4319ft 76kts
01-Jul-18 16:19 43.590392 -116.306135 304 4833ft 70kts
01-Jul-18 16:20 43.598937 -116.331585 297 5307ft 75kts
01-Jul-18 16:22 43.609696 -116.355613 324 5710ft 82kts
01-Jul-18 16:23 43.624973 -116.372907 320 6233ft 72kts
01-Jul-18 16:24 43.640086 -116.390254 321 6696ft 71kts
01-Jul-18 16:25 43.655756 -116.407006 321 7143ft 71kts
01-Jul-18 16:26 43.671520 -116.423415 319 7569ft 71kts
01-Jul-18 16:27 43.687358 -116.439578 319 7972ft 71kts
01-Jul-18 16:28 43.703043 -116.456122 311 8351ft 70kts
01-Jul-18 16:29 43.718037 -116.473767 314 8715ft 71kts
01-Jul-18 16:30 43.733625 -116.490884 314 9061ft 72kts
01-Jul-18 16:31 43.749537 -116.507740 315 9392ft 72kts
01-Jul-18 16:32 43.764532 -116.526218 312 9703ft 72kts
01-Jul-18 16:33 43.779791 -116.545542 309 9919ft 83kts
01-Jul-18 16:34 43.798332 -116.568844 312 9977ft 98kts
01-Jul-18 16:35 43.818636 -116.594495 312 9969ft 103kts
01-Jul-18 16:36 43.839222 -116.620011 313 9943ft 97kts
01-Jul-18 16:37 43.859420 -116.644547 315 9922ft 96kts
01-Jul-18 16:38 43.879306 -116.667139 312 9920ft 95kts
01-Jul-18 16:39 43.900539 -116.689188 318 9921ft 96kts
01-Jul-18 16:40 43.922136 -116.710687 315 9922ft 95kts
01-Jul-18 16:41 43.942882 -116.733729 315 9923ft 95kts
01-Jul-18 16:42 43.963041 -116.757514 313 9923ft 95kts
01-Jul-18 16:43 43.983163 -116.781058 313 9925ft 96kts
01-Jul-18 16:44 44.002112 -116.803144 313 9926ft 96kts
01-Jul-18 16:45 44.022646 -116.826971 313 9926ft 96kts
01-Jul-18 16:46 44.043271 -116.850796 314 9925ft 96kts
01-Jul-18 16:47 44.063930 -116.874552 314 9923ft 96kts
01-Jul-18 16:48 44.084669 -116.898296 314 9921ft 96kts
01-Jul-18 16:49 44.104086 -116.921054 312 9920ft 96kts
01-Jul-18 16:50 44.124230 -116.945821 312 9922ft 96kts
01-Jul-18 16:51 44.144372 -116.970483 312 9923ft 96kts
01-Jul-18 16:52 44.164193 -116.995446 311 9924ft 96kts
01-Jul-18 16:53 44.184273 -117.020197 313 9924ft 96kts
01-Jul-18 16:54 44.204828 -117.044049 314 9923ft 97kts
01-Jul-18 16:54 44.222053 -117.063944 314 9922ft 97kts
01-Jul-18 16:55 44.242818 -117.087826 314 9920ft 97kts
01-Jul-18 16:57 44.267031 -117.115761 314 9917ft 97kts
01-Jul-18 16:58 44.287904 -117.139878 314 9914ft 97kts
01-Jul-18 16:59 44.308230 -117.164629 312 9911ft 97kts
01-Jul-18 17:00 44.328397 -117.189643 312 9907ft 97kts
01-Jul-18 17:00 44.345194 -117.210394 313 9903ft 97kts
01-Jul-18 17:01 44.365835 -117.234949 313 9896ft 98kts
01-Jul-18 17:02 44.386545 -117.258851 313 9890ft 98kts
01-Jul-18 17:03 44.407562 -117.283357 312 9883ft 98kts
01-Jul-18 17:04 44.428286 -117.308321 312 9876ft 98kts
01-Jul-18 17:05 44.449109 -117.333309 312 9868ft 99kts
01-Jul-18 17:06 44.469986 -117.358268 312 9858ft 98kts
01-Jul-18 17:07 44.490227 -117.383047 313 9718ft 99kts
01-Jul-18 17:08 44.512335 -117.407801 313 9301ft 100kts
01-Jul-18 17:09 44.533748 -117.433222 313 9068ft 101kts
01-Jul-18 17:10 44.554647 -117.458886 312 9057ft 99kts
01-Jul-18 17:11 44.575298 -117.484446 313 9046ft 99kts
01-Jul-18 17:12 44.595996 -117.509958 313 9036ft 99kts
01-Jul-18 17:13 44.616695 -117.535368 313 9026ft 99kts
01-Jul-18 17:14 44.637049 -117.560255 313 9015ft 99kts
01-Jul-18 17:15 44.657781 -117.585506 313 9003ft 99kts
01-Jul-18 17:16 44.678701 -117.610889 313 8991ft 99kts
01-Jul-18 17:17 44.699567 -117.636106 313 8978ft 99kts
01-Jul-18 17:18 44.719646 -117.660692 312 8973ft 99kts
01-Jul-18 17:19 44.740011 -117.686071 313 8979ft 99kts
01-Jul-18 17:20 44.760864 -117.710900 314 8986ft 98kts
01-Jul-18 17:21 44.781136 -117.735542 314 8987ft 96kts
01-Jul-18 17:22 44.800377 -117.758422 314 8967ft 82kts
01-Jul-18 17:23 44.818011 -117.776989 311 8962ft 78kts
01-Jul-18 17:24 44.833831 -117.797345 309 8965ft 77kts
01-Jul-18 17:25 44.852252 -117.813313 319 8969ft 78kts
01-Jul-18 17:26 44.872037 -117.830487 323 8415ft 93kts
01-Jul-18 17:27 44.895462 -117.847816 325 7734ft 98kts
01-Jul-18 17:28 44.919944 -117.850096 19 7023ft 99kts
01-Jul-18 17:29 44.942611 -117.833558 349 6897ft 79kts
01-Jul-18 17:30 44.943251 -117.848978 196 6828ft 86kts
01-Jul-18 17:31 44.918917 -117.849629 162 6248ft 96kts
01-Jul-18 17:32 44.894015 -117.838635 169 5352ft 95kts
01-Jul-18 17:33 44.866453 -117.828976 176 5027ft 108kts
01-Jul-18 17:34 44.837782 -117.825044 183 4517ft 100kts
01-Jul-18 17:35 44.817067 -117.805605 110 4001ft 90kts
01-Jul-18 17:36 44.828873 -117.798505 322 3475ft 60kts
01-Jul-18 17:37 44.835720 -117.806954 232 3376ft 7kts
01-Jul-18 17:38 44.834598 -117.807970 148 3376ft 0kts
01-Jul-18 17:39 44.834598 -117.807970 148 3376ft 0kts

Navigation Log

Ident Type
Flight plan parsing failed, navigation log unavailable